sensor_id;sensor_type;location;lat;lon;timestamp;P1;durP1;ratioP1;P2;durP2;ratioP2
19560;SDS011;9927;47.792;10.616;2022-12-20T04:01:32;9.30;;;8.47;;
19560;SDS011;9927;47.792;10.616;2022-12-20T04:04:03;13.03;;;8.37;;
19560;SDS011;9927;47.792;10.616;2022-12-20T04:06:30;11.97;;;8.37;;
19560;SDS011;9927;47.792;10.616;2022-12-20T04:08:58;13.50;;;9.17;;
19560;SDS011;9927;47.792;10.616;2022-12-20T04:11:25;10.03;;;7.77;;
19560;SDS011;9927;47.792;10.616;2022-12-20T04:13:54;17.13;;;9.53;;
19560;SDS011;9927;47.792;10.616;2022-12-20T04:16:22;13.73;;;8.97;;
19560;SDS011;9927;47.792;10.616;2022-12-20T04:18:51;12.80;;;9.60;;
19560;SDS011;9927;47.792;10.616;2022-12-20T04:21:22;12.73;;;8.37;;
19560;SDS011;9927;47.792;10.616;2022-12-20T04:23:52;14.67;;;9.83;;
19560;SDS011;9927;47.792;10.616;2022-12-20T04:26:19;9.73;;;8.10;;
19560;SDS011;9927;47.792;10.616;2022-12-20T04:28:46;14.40;;;8.70;;
19560;SDS011;9927;47.792;10.616;2022-12-20T04:31:14;10.77;;;7.83;;
19560;SDS011;9927;47.792;10.616;2022-12-20T04:33:49;11.33;;;8.43;;
19560;SDS011;9927;47.792;10.616;2022-12-20T04:36:16;11.57;;;8.70;;
19560;SDS011;9927;47.792;10.616;2022-12-20T04:38:44;13.53;;;8.90;;
19560;SDS011;9927;47.792;10.616;2022-12-20T04:41:11;11.90;;;9.07;;
19560;SDS011;9927;47.792;10.616;2022-12-20T04:43:48;10.67;;;8.30;;
19560;SDS011;9927;47.792;10.616;2022-12-20T04:46:17;11.43;;;8.60;;
19560;SDS011;9927;47.792;10.616;2022-12-20T04:48:45;11.93;;;8.33;;
19560;SDS011;9927;47.792;10.616;2022-12-20T04:51:23;16.57;;;9.90;;
19560;SDS011;9927;47.792;10.616;2022-12-20T04:53:51;12.77;;;8.30;;
19560;SDS011;9927;47.792;10.616;2022-12-20T04:58:48;8.67;;;7.80;;
19560;SDS011;9927;47.792;10.616;2022-12-20T05:01:16;12.10;;;8.83;;
19560;SDS011;9927;47.792;10.616;2022-12-20T05:03:45;12.77;;;8.63;;
19560;SDS011;9927;47.792;10.616;2022-12-20T05:06:13;8.67;;;7.70;;
19560;SDS011;9927;47.792;10.616;2022-12-20T05:08:41;11.77;;;8.50;;
19560;SDS011;9927;47.792;10.616;2022-12-20T05:11:08;9.47;;;8.00;;
19560;SDS011;9927;47.792;10.616;2022-12-20T05:13:36;18.13;;;10.07;;
19560;SDS011;9927;47.792;10.616;2022-12-20T05:16:03;12.53;;;9.17;;
19560;SDS011;9927;47.792;10.616;2022-12-20T05:18:31;10.53;;;9.53;;
19560;SDS011;9927;47.792;10.616;2022-12-20T05:20:58;12.60;;;9.07;;
19560;SDS011;9927;47.792;10.616;2022-12-20T05:23:45;10.83;;;8.90;;
19560;SDS011;9927;47.792;10.616;2022-12-20T05:26:33;12.30;;;9.80;;
19560;SDS011;9927;47.792;10.616;2022-12-20T05:29:02;15.40;;;10.33;;
19560;SDS011;9927;47.792;10.616;2022-12-20T05:31:30;15.53;;;10.23;;
19560;SDS011;9927;47.792;10.616;2022-12-20T05:33:58;22.20;;;11.07;;
19560;SDS011;9927;47.792;10.616;2022-12-20T05:36:26;15.60;;;10.60;;
19560;SDS011;9927;47.792;10.616;2022-12-20T05:38:54;21.03;;;11.70;;
19560;SDS011;9927;47.792;10.616;2022-12-20T05:41:29;15.70;;;10.00;;
19560;SDS011;9927;47.792;10.616;2022-12-20T05:43:56;14.87;;;10.10;;
19560;SDS011;9927;47.792;10.616;2022-12-20T05:46:24;20.53;;;11.17;;
19560;SDS011;9927;47.792;10.616;2022-12-20T05:48:51;21.77;;;12.33;;
19560;SDS011;9927;47.792;10.616;2022-12-20T05:51:19;21.10;;;11.60;;
19560;SDS011;9927;47.792;10.616;2022-12-20T05:53:46;17.00;;;10.47;;
19560;SDS011;9927;47.792;10.616;2022-12-20T05:56:14;19.40;;;10.23;;
19560;SDS011;9927;47.792;10.616;2022-12-20T05:58:41;12.50;;;9.27;;
19560;SDS011;9927;47.792;10.616;2022-12-20T06:01:08;18.10;;;10.73;;
19560;SDS011;9927;47.792;10.616;2022-12-20T06:03:37;21.13;;;10.50;;
19560;SDS011;9927;47.792;10.616;2022-12-20T06:06:06;17.10;;;10.20;;
19560;SDS011;9927;47.792;10.616;2022-12-20T06:08:39;13.77;;;8.80;;
19560;SDS011;9927;47.792;10.616;2022-12-20T06:11:07;15.53;;;9.93;;
19560;SDS011;9927;47.792;10.616;2022-12-20T06:13:34;15.37;;;9.97;;
19560;SDS011;9927;47.792;10.616;2022-12-20T06:16:01;13.83;;;9.77;;
19560;SDS011;9927;47.792;10.616;2022-12-20T06:18:29;16.77;;;10.60;;
19560;SDS011;9927;47.792;10.616;2022-12-20T06:20:56;15.60;;;10.27;;
19560;SDS011;9927;47.792;10.616;2022-12-20T06:23:23;19.63;;;11.90;;
19560;SDS011;9927;47.792;10.616;2022-12-20T06:25:51;16.40;;;11.07;;
19560;SDS011;9927;47.792;10.616;2022-12-20T06:28:19;23.13;;;11.87;;
19560;SDS011;9927;47.792;10.616;2022-12-20T06:30:51;20.63;;;11.53;;
19560;SDS011;9927;47.792;10.616;2022-12-20T06:33:19;20.70;;;11.10;;
19560;SDS011;9927;47.792;10.616;2022-12-20T06:35:50;16.13;;;10.63;;
19560;SDS011;9927;47.792;10.616;2022-12-20T06:38:17;17.83;;;9.93;;
19560;SDS011;9927;47.792;10.616;2022-12-20T06:40:45;17.50;;;10.27;;
19560;SDS011;9927;47.792;10.616;2022-12-20T06:43:12;15.47;;;10.47;;
19560;SDS011;9927;47.792;10.616;2022-12-20T06:45:39;14.33;;;9.63;;
19560;SDS011;9927;47.792;10.616;2022-12-20T06:48:08;13.83;;;9.30;;
19560;SDS011;9927;47.792;10.616;2022-12-20T06:50:36;19.77;;;9.90;;
19560;SDS011;9927;47.792;10.616;2022-12-20T06:53:05;20.37;;;11.30;;
19560;SDS011;9927;47.792;10.616;2022-12-20T06:55:32;15.43;;;9.77;;
19560;SDS011;9927;47.792;10.616;2022-12-20T06:58:00;18.10;;;11.23;;
19560;SDS011;9927;47.792;10.616;2022-12-20T07:00:27;17.17;;;10.90;;
19560;SDS011;9927;47.792;10.616;2022-12-20T07:02:54;17.93;;;10.90;;
19560;SDS011;9927;47.792;10.616;2022-12-20T07:05:22;17.73;;;11.07;;
19560;SDS011;9927;47.792;10.616;2022-12-20T07:07:49;20.20;;;11.80;;
19560;SDS011;9927;47.792;10.616;2022-12-20T07:10:16;16.90;;;10.00;;
19560;SDS011;9927;47.792;10.616;2022-12-20T07:12:44;19.87;;;10.87;;
19560;SDS011;9927;47.792;10.616;2022-12-20T07:15:14;16.70;;;10.80;;
19560;SDS011;9927;47.792;10.616;2022-12-20T07:17:42;17.30;;;10.53;;
19560;SDS011;9927;47.792;10.616;2022-12-20T07:20:10;14.47;;;10.63;;
19560;SDS011;9927;47.792;10.616;2022-12-20T07:22:40;18.80;;;12.23;;
19560;SDS011;9927;47.792;10.616;2022-12-20T07:25:07;14.63;;;12.37;;
19560;SDS011;9927;47.792;10.616;2022-12-20T07:27:36;21.60;;;13.90;;
19560;SDS011;9927;47.792;10.616;2022-12-20T07:30:03;19.30;;;13.90;;
19560;SDS011;9927;47.792;10.616;2022-12-20T07:32:31;24.57;;;15.27;;
19560;SDS011;9927;47.792;10.616;2022-12-20T07:34:58;23.13;;;14.70;;
19560;SDS011;9927;47.792;10.616;2022-12-20T07:37:27;22.97;;;15.73;;
19560;SDS011;9927;47.792;10.616;2022-12-20T07:39:55;24.57;;;15.43;;
19560;SDS011;9927;47.792;10.616;2022-12-20T07:42:22;21.77;;;13.23;;
19560;SDS011;9927;47.792;10.616;2022-12-20T07:45:01;19.90;;;11.50;;
19560;SDS011;9927;47.792;10.616;2022-12-20T07:47:28;19.87;;;13.57;;
19560;SDS011;9927;47.792;10.616;2022-12-20T07:49:55;21.20;;;13.57;;
19560;SDS011;9927;47.792;10.616;2022-12-20T07:52:23;18.93;;;13.67;;
19560;SDS011;9927;47.792;10.616;2022-12-20T07:54:56;19.77;;;13.70;;
19560;SDS011;9927;47.792;10.616;2022-12-20T07:57:31;18.30;;;12.33;;
19560;SDS011;9927;47.792;10.616;2022-12-20T08:00:09;21.03;;;14.03;;
19560;SDS011;9927;47.792;10.616;2022-12-20T08:02:39;21.63;;;13.40;;
19560;SDS011;9927;47.792;10.616;2022-12-20T08:05:11;20.03;;;14.43;;
19560;SDS011;9927;47.792;10.616;2022-12-20T08:07:39;18.17;;;13.70;;
19560;SDS011;9927;47.792;10.616;2022-12-20T08:10:08;18.33;;;13.13;;
19560;SDS011;9927;47.792;10.616;2022-12-20T08:12:39;16.63;;;12.77;;
19560;SDS011;9927;47.792;10.616;2022-12-20T08:15:07;24.77;;;14.43;;
19560;SDS011;9927;47.792;10.616;2022-12-20T08:17:35;22.93;;;14.37;;
19560;SDS011;9927;47.792;10.616;2022-12-20T08:20:02;19.33;;;13.90;;
19560;SDS011;9927;47.792;10.616;2022-12-20T08:22:31;21.60;;;14.40;;
19560;SDS011;9927;47.792;10.616;2022-12-20T08:24:59;21.03;;;13.50;;
19560;SDS011;9927;47.792;10.616;2022-12-20T08:27:26;18.90;;;12.53;;
19560;SDS011;9927;47.792;10.616;2022-12-20T08:29:53;24.07;;;14.00;;
19560;SDS011;9927;47.792;10.616;2022-12-20T08:32:21;25.87;;;13.30;;
19560;SDS011;9927;47.792;10.616;2022-12-20T08:34:48;19.23;;;12.70;;
19560;SDS011;9927;47.792;10.616;2022-12-20T08:37:16;18.60;;;13.60;;
19560;SDS011;9927;47.792;10.616;2022-12-20T08:39:43;23.33;;;14.57;;
19560;SDS011;9927;47.792;10.616;2022-12-20T08:42:12;17.30;;;13.07;;
19560;SDS011;9927;47.792;10.616;2022-12-20T08:44:39;21.00;;;14.17;;
19560;SDS011;9927;47.792;10.616;2022-12-20T08:47:07;20.77;;;13.27;;
19560;SDS011;9927;47.792;10.616;2022-12-20T08:49:34;23.33;;;15.10;;
19560;SDS011;9927;47.792;10.616;2022-12-20T08:52:02;16.63;;;12.80;;
19560;SDS011;9927;47.792;10.616;2022-12-20T08:54:29;18.83;;;14.43;;
19560;SDS011;9927;47.792;10.616;2022-12-20T08:56:56;20.63;;;14.30;;
19560;SDS011;9927;47.792;10.616;2022-12-20T08:59:24;22.37;;;14.80;;
19560;SDS011;9927;47.792;10.616;2022-12-20T09:01:52;15.60;;;12.67;;
19560;SDS011;9927;47.792;10.616;2022-12-20T09:04:20;17.97;;;14.10;;
19560;SDS011;9927;47.792;10.616;2022-12-20T09:06:48;16.10;;;13.47;;
19560;SDS011;9927;47.792;10.616;2022-12-20T09:09:15;17.27;;;13.20;;
19560;SDS011;9927;47.792;10.616;2022-12-20T09:11:42;14.63;;;13.03;;
19560;SDS011;9927;47.792;10.616;2022-12-20T09:14:09;18.63;;;13.20;;
19560;SDS011;9927;47.792;10.616;2022-12-20T09:16:37;17.57;;;13.03;;
19560;SDS011;9927;47.792;10.616;2022-12-20T09:19:04;21.03;;;15.03;;
19560;SDS011;9927;47.792;10.616;2022-12-20T09:21:32;17.63;;;14.10;;
19560;SDS011;9927;47.792;10.616;2022-12-20T09:24:00;18.63;;;14.83;;
19560;SDS011;9927;47.792;10.616;2022-12-20T09:26:28;21.70;;;14.63;;
19560;SDS011;9927;47.792;10.616;2022-12-20T09:28:56;15.90;;;12.57;;
19560;SDS011;9927;47.792;10.616;2022-12-20T09:31:24;14.77;;;13.00;;
19560;SDS011;9927;47.792;10.616;2022-12-20T09:33:56;15.27;;;11.97;;
19560;SDS011;9927;47.792;10.616;2022-12-20T09:36:25;14.33;;;12.10;;
19560;SDS011;9927;47.792;10.616;2022-12-20T09:38:53;12.83;;;11.70;;
19560;SDS011;9927;47.792;10.616;2022-12-20T09:41:25;32.53;;;24.97;;
19560;SDS011;9927;47.792;10.616;2022-12-20T09:43:57;34.20;;;26.47;;
19560;SDS011;9927;47.792;10.616;2022-12-20T09:46:29;35.07;;;26.73;;
19560;SDS011;9927;47.792;10.616;2022-12-20T09:48:57;43.07;;;29.23;;
19560;SDS011;9927;47.792;10.616;2022-12-20T09:54:11;24.83;;;19.17;;
19560;SDS011;9927;47.792;10.616;2022-12-20T09:59:32;30.17;;;20.87;;
19560;SDS011;9927;47.792;10.616;2022-12-20T10:02:08;23.03;;;17.70;;
19560;SDS011;9927;47.792;10.616;2022-12-20T10:04:58;26.43;;;16.80;;
19560;SDS011;9927;47.792;10.616;2022-12-20T10:07:29;20.17;;;15.80;;
19560;SDS011;9927;47.792;10.616;2022-12-20T10:12:45;18.30;;;13.37;;
19560;SDS011;9927;47.792;10.616;2022-12-20T10:23:55;19.57;;;16.43;;
19560;SDS011;9927;47.792;10.616;2022-12-20T10:26:28;20.77;;;16.43;;
19560;SDS011;9927;47.792;10.616;2022-12-20T10:28:57;18.63;;;16.63;;
19560;SDS011;9927;47.792;10.616;2022-12-20T10:31:25;20.87;;;14.43;;
19560;SDS011;9927;47.792;10.616;2022-12-20T10:33:53;15.50;;;13.90;;
19560;SDS011;9927;47.792;10.616;2022-12-20T10:38:53;19.33;;;13.57;;
19560;SDS011;9927;47.792;10.616;2022-12-20T10:41:27;15.03;;;13.50;;
19560;SDS011;9927;47.792;10.616;2022-12-20T10:44:03;16.20;;;13.77;;
19560;SDS011;9927;47.792;10.616;2022-12-20T10:46:44;16.30;;;14.43;;
19560;SDS011;9927;47.792;10.616;2022-12-20T10:51:59;14.93;;;13.53;;
19560;SDS011;9927;47.792;10.616;2022-12-20T10:57:47;18.07;;;14.17;;
19560;SDS011;9927;47.792;10.616;2022-12-20T11:02:35;16.27;;;13.10;;
19560;SDS011;9927;47.792;10.616;2022-12-20T11:07:37;14.50;;;12.37;;
19560;SDS011;9927;47.792;10.616;2022-12-20T11:10:36;14.37;;;12.97;;
19560;SDS011;9927;47.792;10.616;2022-12-20T11:13:04;16.57;;;14.33;;
19560;SDS011;9927;47.792;10.616;2022-12-20T11:15:35;17.60;;;15.40;;
19560;SDS011;9927;47.792;10.616;2022-12-20T11:18:07;17.83;;;15.17;;
19560;SDS011;9927;47.792;10.616;2022-12-20T11:21:26;18.40;;;14.00;;
19560;SDS011;9927;47.792;10.616;2022-12-20T11:26:45;30.43;;;20.97;;
19560;SDS011;9927;47.792;10.616;2022-12-20T11:40:53;17.63;;;15.77;;
19560;SDS011;9927;47.792;10.616;2022-12-20T11:46:29;19.00;;;14.33;;
19560;SDS011;9927;47.792;10.616;2022-12-20T11:57:51;18.57;;;14.13;;
19560;SDS011;9927;47.792;10.616;2022-12-20T12:01:06;20.67;;;15.07;;
19560;SDS011;9927;47.792;10.616;2022-12-20T12:03:35;17.03;;;14.03;;
19560;SDS011;9927;47.792;10.616;2022-12-20T12:06:06;19.57;;;15.57;;
19560;SDS011;9927;47.792;10.616;2022-12-20T12:11:46;23.23;;;16.43;;
19560;SDS011;9927;47.792;10.616;2022-12-20T12:17:09;18.87;;;16.10;;
19560;SDS011;9927;47.792;10.616;2022-12-20T12:19:44;25.80;;;16.37;;
19560;SDS011;9927;47.792;10.616;2022-12-20T12:22:26;22.37;;;17.07;;
19560;SDS011;9927;47.792;10.616;2022-12-20T12:24:59;22.50;;;17.83;;
19560;SDS011;9927;47.792;10.616;2022-12-20T12:27:34;19.07;;;15.57;;
19560;SDS011;9927;47.792;10.616;2022-12-20T12:30:02;21.67;;;16.97;;
19560;SDS011;9927;47.792;10.616;2022-12-20T12:43:40;21.50;;;16.53;;
19560;SDS011;9927;47.792;10.616;2022-12-20T12:46:14;25.60;;;18.17;;
19560;SDS011;9927;47.792;10.616;2022-12-20T12:48:56;21.37;;;17.13;;
19560;SDS011;9927;47.792;10.616;2022-12-20T12:51:35;19.60;;;15.77;;
19560;SDS011;9927;47.792;10.616;2022-12-20T12:56:39;22.50;;;17.57;;
19560;SDS011;9927;47.792;10.616;2022-12-20T13:02:21;18.30;;;15.70;;
19560;SDS011;9927;47.792;10.616;2022-12-20T13:12:46;17.37;;;15.40;;
19560;SDS011;9927;47.792;10.616;2022-12-20T13:17:59;20.53;;;15.17;;
19560;SDS011;9927;47.792;10.616;2022-12-20T13:20:28;18.93;;;15.87;;
19560;SDS011;9927;47.792;10.616;2022-12-20T13:23:04;18.07;;;16.17;;
19560;SDS011;9927;47.792;10.616;2022-12-20T13:25:44;15.73;;;14.00;;
19560;SDS011;9927;47.792;10.616;2022-12-20T13:33:46;19.37;;;14.73;;
19560;SDS011;9927;47.792;10.616;2022-12-20T13:36:36;15.60;;;14.10;;
19560;SDS011;9927;47.792;10.616;2022-12-20T13:39:28;16.63;;;14.83;;
19560;SDS011;9927;47.792;10.616;2022-12-20T13:42:15;25.10;;;18.37;;
19560;SDS011;9927;47.792;10.616;2022-12-20T13:44:40;19.50;;;16.70;;
19560;SDS011;9927;47.792;10.616;2022-12-20T13:47:25;17.77;;;14.00;;
19560;SDS011;9927;47.792;10.616;2022-12-20T13:50:00;17.63;;;14.70;;
19560;SDS011;9927;47.792;10.616;2022-12-20T13:52:44;16.07;;;14.47;;
19560;SDS011;9927;47.792;10.616;2022-12-20T13:55:31;21.83;;;15.67;;
19560;SDS011;9927;47.792;10.616;2022-12-20T13:58:12;22.20;;;15.47;;
19560;SDS011;9927;47.792;10.616;2022-12-20T14:00:43;19.47;;;14.73;;
19560;SDS011;9927;47.792;10.616;2022-12-20T14:03:16;17.80;;;13.33;;
19560;SDS011;9927;47.792;10.616;2022-12-20T14:06:12;20.53;;;12.90;;
19560;SDS011;9927;47.792;10.616;2022-12-20T14:12:24;14.93;;;12.10;;
19560;SDS011;9927;47.792;10.616;2022-12-20T14:15:01;13.00;;;11.60;;
19560;SDS011;9927;47.792;10.616;2022-12-20T14:17:30;15.73;;;13.00;;
19560;SDS011;9927;47.792;10.616;2022-12-20T14:22:33;15.07;;;12.20;;
19560;SDS011;9927;47.792;10.616;2022-12-20T14:25:02;17.03;;;12.50;;
19560;SDS011;9927;47.792;10.616;2022-12-20T14:27:33;16.87;;;12.80;;
19560;SDS011;9927;47.792;10.616;2022-12-20T14:30:03;29.07;;;20.63;;
19560;SDS011;9927;47.792;10.616;2022-12-20T14:32:31;26.20;;;20.00;;
19560;SDS011;9927;47.792;10.616;2022-12-20T14:34:58;26.47;;;20.57;;
19560;SDS011;9927;47.792;10.616;2022-12-20T14:37:27;19.40;;;17.17;;
19560;SDS011;9927;47.792;10.616;2022-12-20T14:42:42;17.93;;;14.47;;
19560;SDS011;9927;47.792;10.616;2022-12-20T14:47:36;13.23;;;10.77;;
19560;SDS011;9927;47.792;10.616;2022-12-20T14:50:18;12.93;;;10.67;;
19560;SDS011;9927;47.792;10.616;2022-12-20T14:52:51;11.13;;;10.13;;
19560;SDS011;9927;47.792;10.616;2022-12-20T14:55:19;12.70;;;11.40;;
19560;SDS011;9927;47.792;10.616;2022-12-20T14:57:54;15.43;;;12.30;;
19560;SDS011;9927;47.792;10.616;2022-12-20T15:00:23;15.83;;;12.43;;
19560;SDS011;9927;47.792;10.616;2022-12-20T15:13:29;21.20;;;16.97;;
19560;SDS011;9927;47.792;10.616;2022-12-20T15:15:59;22.87;;;17.27;;
19560;SDS011;9927;47.792;10.616;2022-12-20T15:18:31;19.70;;;16.53;;
19560;SDS011;9927;47.792;10.616;2022-12-20T15:23:30;22.27;;;19.20;;
19560;SDS011;9927;47.792;10.616;2022-12-20T15:25:58;26.77;;;20.33;;
19560;SDS011;9927;47.792;10.616;2022-12-20T15:28:25;37.73;;;27.97;;
19560;SDS011;9927;47.792;10.616;2022-12-20T15:30:53;33.73;;;24.90;;
19560;SDS011;9927;47.792;10.616;2022-12-20T15:33:22;33.43;;;25.37;;
19560;SDS011;9927;47.792;10.616;2022-12-20T15:35:53;36.70;;;27.80;;
19560;SDS011;9927;47.792;10.616;2022-12-20T15:38:21;34.20;;;26.63;;
19560;SDS011;9927;47.792;10.616;2022-12-20T15:41:12;40.47;;;28.33;;
19560;SDS011;9927;47.792;10.616;2022-12-20T15:43:43;46.47;;;32.20;;
19560;SDS011;9927;47.792;10.616;2022-12-20T15:46:11;42.27;;;28.13;;
19560;SDS011;9927;47.792;10.616;2022-12-20T15:48:38;36.87;;;26.67;;
19560;SDS011;9927;47.792;10.616;2022-12-20T15:51:11;44.00;;;29.47;;
19560;SDS011;9927;47.792;10.616;2022-12-20T15:53:44;46.27;;;30.50;;
19560;SDS011;9927;47.792;10.616;2022-12-20T15:56:15;47.60;;;31.03;;
19560;SDS011;9927;47.792;10.616;2022-12-20T15:58:45;42.97;;;28.33;;
19560;SDS011;9927;47.792;10.616;2022-12-20T16:01:15;39.87;;;26.83;;
19560;SDS011;9927;47.792;10.616;2022-12-20T16:03:46;42.50;;;27.70;;
19560;SDS011;9927;47.792;10.616;2022-12-20T16:06:13;36.37;;;26.63;;
19560;SDS011;9927;47.792;10.616;2022-12-20T16:08:41;36.13;;;26.87;;
19560;SDS011;9927;47.792;10.616;2022-12-20T16:11:21;34.57;;;25.53;;
19560;SDS011;9927;47.792;10.616;2022-12-20T16:13:50;33.03;;;24.30;;
19560;SDS011;9927;47.792;10.616;2022-12-20T16:16:18;38.37;;;24.03;;
19560;SDS011;9927;47.792;10.616;2022-12-20T16:18:47;38.93;;;25.30;;
19560;SDS011;9927;47.792;10.616;2022-12-20T16:21:16;35.50;;;23.77;;
19560;SDS011;9927;47.792;10.616;2022-12-20T16:23:45;31.50;;;23.43;;
19560;SDS011;9927;47.792;10.616;2022-12-20T16:26:13;27.17;;;21.00;;
19560;SDS011;9927;47.792;10.616;2022-12-20T16:28:42;30.53;;;22.17;;
19560;SDS011;9927;47.792;10.616;2022-12-20T16:31:11;32.70;;;22.77;;
19560;SDS011;9927;47.792;10.616;2022-12-20T16:33:51;32.43;;;22.57;;
19560;SDS011;9927;47.792;10.616;2022-12-20T16:36:20;31.27;;;23.17;;
19560;SDS011;9927;47.792;10.616;2022-12-20T16:38:48;31.87;;;22.07;;
19560;SDS011;9927;47.792;10.616;2022-12-20T16:41:17;36.67;;;25.57;;
19560;SDS011;9927;47.792;10.616;2022-12-20T16:43:47;32.73;;;21.90;;
19560;SDS011;9927;47.792;10.616;2022-12-20T16:46:17;40.90;;;25.40;;
19560;SDS011;9927;47.792;10.616;2022-12-20T16:48:45;41.53;;;24.60;;
19560;SDS011;9927;47.792;10.616;2022-12-20T16:53:54;32.07;;;23.93;;
19560;SDS011;9927;47.792;10.616;2022-12-20T16:56:42;48.97;;;32.83;;
19560;SDS011;9927;47.792;10.616;2022-12-20T16:59:10;44.70;;;31.17;;
19560;SDS011;9927;47.792;10.616;2022-12-20T17:01:48;47.83;;;32.17;;
19560;SDS011;9927;47.792;10.616;2022-12-20T17:04:18;49.50;;;33.67;;
19560;SDS011;9927;47.792;10.616;2022-12-20T17:06:47;48.33;;;34.43;;
19560;SDS011;9927;47.792;10.616;2022-12-20T17:09:15;41.17;;;31.27;;
19560;SDS011;9927;47.792;10.616;2022-12-20T17:12:01;43.83;;;30.13;;
19560;SDS011;9927;47.792;10.616;2022-12-20T17:14:30;46.70;;;29.10;;
19560;SDS011;9927;47.792;10.616;2022-12-20T17:16:57;39.50;;;26.10;;
19560;SDS011;9927;47.792;10.616;2022-12-20T17:19:27;40.17;;;25.60;;
19560;SDS011;9927;47.792;10.616;2022-12-20T17:21:55;32.90;;;23.53;;
19560;SDS011;9927;47.792;10.616;2022-12-20T17:24:40;38.27;;;27.03;;
19560;SDS011;9927;47.792;10.616;2022-12-20T17:27:08;39.10;;;26.90;;
19560;SDS011;9927;47.792;10.616;2022-12-20T17:29:36;43.40;;;28.43;;
19560;SDS011;9927;47.792;10.616;2022-12-20T17:32:09;33.00;;;25.53;;
19560;SDS011;9927;47.792;10.616;2022-12-20T17:34:46;40.90;;;28.07;;
19560;SDS011;9927;47.792;10.616;2022-12-20T17:37:13;38.43;;;27.10;;
19560;SDS011;9927;47.792;10.616;2022-12-20T17:39:41;48.57;;;30.37;;
19560;SDS011;9927;47.792;10.616;2022-12-20T17:42:11;50.27;;;31.40;;
19560;SDS011;9927;47.792;10.616;2022-12-20T17:44:39;55.83;;;32.77;;
19560;SDS011;9927;47.792;10.616;2022-12-20T17:47:06;55.83;;;34.03;;
19560;SDS011;9927;47.792;10.616;2022-12-20T17:49:33;56.50;;;31.90;;
19560;SDS011;9927;47.792;10.616;2022-12-20T17:52:01;46.77;;;29.83;;
19560;SDS011;9927;47.792;10.616;2022-12-20T17:54:28;48.37;;;29.10;;
19560;SDS011;9927;47.792;10.616;2022-12-20T17:57:04;54.73;;;32.03;;
19560;SDS011;9927;47.792;10.616;2022-12-20T17:59:32;50.70;;;31.63;;
19560;SDS011;9927;47.792;10.616;2022-12-20T18:01:59;56.50;;;33.10;;
19560;SDS011;9927;47.792;10.616;2022-12-20T18:04:27;58.90;;;35.30;;
19560;SDS011;9927;47.792;10.616;2022-12-20T18:06:54;45.70;;;29.50;;
19560;SDS011;9927;47.792;10.616;2022-12-20T18:09:22;49.80;;;29.73;;
19560;SDS011;9927;47.792;10.616;2022-12-20T18:11:50;44.40;;;28.77;;
19560;SDS011;9927;47.792;10.616;2022-12-20T18:14:17;51.53;;;28.70;;
19560;SDS011;9927;47.792;10.616;2022-12-20T18:16:44;44.70;;;29.07;;
19560;SDS011;9927;47.792;10.616;2022-12-20T18:19:15;47.73;;;30.90;;
19560;SDS011;9927;47.792;10.616;2022-12-20T18:21:43;44.37;;;30.70;;
19560;SDS011;9927;47.792;10.616;2022-12-20T18:24:12;51.70;;;32.00;;
19560;SDS011;9927;47.792;10.616;2022-12-20T18:26:40;49.53;;;30.57;;
19560;SDS011;9927;47.792;10.616;2022-12-20T18:29:10;53.93;;;33.47;;
19560;SDS011;9927;47.792;10.616;2022-12-20T18:31:38;66.43;;;39.03;;
19560;SDS011;9927;47.792;10.616;2022-12-20T18:34:05;88.70;;;49.97;;
19560;SDS011;9927;47.792;10.616;2022-12-20T18:36:34;122.00;;;64.70;;
19560;SDS011;9927;47.792;10.616;2022-12-20T18:39:03;104.50;;;57.60;;
19560;SDS011;9927;47.792;10.616;2022-12-20T18:41:32;96.43;;;55.07;;
19560;SDS011;9927;47.792;10.616;2022-12-20T18:44:02;81.10;;;47.97;;
19560;SDS011;9927;47.792;10.616;2022-12-20T18:46:30;64.70;;;41.60;;
19560;SDS011;9927;47.792;10.616;2022-12-20T18:48:59;58.87;;;37.30;;
19560;SDS011;9927;47.792;10.616;2022-12-20T18:51:28;54.50;;;35.30;;
19560;SDS011;9927;47.792;10.616;2022-12-20T18:53:57;49.87;;;33.17;;
19560;SDS011;9927;47.792;10.616;2022-12-20T18:56:27;56.63;;;34.20;;
19560;SDS011;9927;47.792;10.616;2022-12-20T18:58:57;51.40;;;34.17;;
19560;SDS011;9927;47.792;10.616;2022-12-20T19:01:35;57.23;;;32.97;;
19560;SDS011;9927;47.792;10.616;2022-12-20T19:04:03;47.90;;;31.30;;
19560;SDS011;9927;47.792;10.616;2022-12-20T19:06:33;44.57;;;29.43;;
19560;SDS011;9927;47.792;10.616;2022-12-20T19:09:02;43.60;;;29.17;;
19560;SDS011;9927;47.792;10.616;2022-12-20T19:11:31;41.87;;;27.83;;
19560;SDS011;9927;47.792;10.616;2022-12-20T19:13:59;49.00;;;30.23;;
19560;SDS011;9927;47.792;10.616;2022-12-20T19:16:27;42.53;;;28.43;;
19560;SDS011;9927;47.792;10.616;2022-12-20T19:18:58;34.70;;;25.13;;
19560;SDS011;9927;47.792;10.616;2022-12-20T19:21:30;33.83;;;23.97;;
19560;SDS011;9927;47.792;10.616;2022-12-20T19:23:59;36.30;;;25.67;;
19560;SDS011;9927;47.792;10.616;2022-12-20T19:26:29;32.10;;;24.03;;
19560;SDS011;9927;47.792;10.616;2022-12-20T19:28:57;31.60;;;22.20;;
19560;SDS011;9927;47.792;10.616;2022-12-20T19:31:25;26.53;;;19.80;;
19560;SDS011;9927;47.792;10.616;2022-12-20T19:34:00;33.30;;;23.30;;
19560;SDS011;9927;47.792;10.616;2022-12-20T19:36:30;34.57;;;22.90;;
19560;SDS011;9927;47.792;10.616;2022-12-20T19:39:02;35.07;;;25.13;;
19560;SDS011;9927;47.792;10.616;2022-12-20T19:41:32;41.87;;;28.10;;
19560;SDS011;9927;47.792;10.616;2022-12-20T19:44:00;35.57;;;22.57;;
19560;SDS011;9927;47.792;10.616;2022-12-20T19:46:28;32.63;;;21.67;;
19560;SDS011;9927;47.792;10.616;2022-12-20T19:48:56;34.43;;;22.57;;
19560;SDS011;9927;47.792;10.616;2022-12-20T19:51:26;38.60;;;24.57;;
19560;SDS011;9927;47.792;10.616;2022-12-20T19:53:55;38.13;;;23.27;;
19560;SDS011;9927;47.792;10.616;2022-12-20T19:56:24;44.33;;;27.27;;
19560;SDS011;9927;47.792;10.616;2022-12-20T19:58:53;43.00;;;25.07;;
19560;SDS011;9927;47.792;10.616;2022-12-20T20:01:21;35.43;;;23.97;;
19560;SDS011;9927;47.792;10.616;2022-12-20T20:03:52;53.53;;;35.43;;
19560;SDS011;9927;47.792;10.616;2022-12-20T20:06:21;89.57;;;58.80;;
19560;SDS011;9927;47.792;10.616;2022-12-20T20:08:49;67.83;;;45.07;;
19560;SDS011;9927;47.792;10.616;2022-12-20T20:11:17;52.57;;;36.37;;
19560;SDS011;9927;47.792;10.616;2022-12-20T20:13:45;58.07;;;33.33;;
19560;SDS011;9927;47.792;10.616;2022-12-20T20:16:12;54.30;;;32.47;;
19560;SDS011;9927;47.792;10.616;2022-12-20T20:18:47;46.70;;;31.77;;
19560;SDS011;9927;47.792;10.616;2022-12-20T20:21:15;46.77;;;32.90;;
19560;SDS011;9927;47.792;10.616;2022-12-20T20:23:47;47.00;;;31.23;;
19560;SDS011;9927;47.792;10.616;2022-12-20T20:26:17;39.27;;;26.10;;
19560;SDS011;9927;47.792;10.616;2022-12-20T20:28:46;29.87;;;21.00;;
19560;SDS011;9927;47.792;10.616;2022-12-20T20:31:14;27.00;;;19.63;;
19560;SDS011;9927;47.792;10.616;2022-12-20T20:33:42;28.30;;;20.27;;
19560;SDS011;9927;47.792;10.616;2022-12-20T20:36:14;30.37;;;21.83;;
19560;SDS011;9927;47.792;10.616;2022-12-20T20:38:43;30.50;;;21.60;;
19560;SDS011;9927;47.792;10.616;2022-12-20T20:41:11;33.77;;;22.43;;
19560;SDS011;9927;47.792;10.616;2022-12-20T20:43:40;31.30;;;22.33;;
19560;SDS011;9927;47.792;10.616;2022-12-20T20:46:09;34.73;;;23.47;;
19560;SDS011;9927;47.792;10.616;2022-12-20T20:48:38;31.80;;;22.40;;